Time;durP1;ratioP1;P1;durP2;ratioP2;P2;SDS_P1;SDS_P2;PMS_P1;PMS_P2;Temp;Humidity;BMP_temperature;BMP_pressure;BME280_temperature;BME280_humidity;BME280_pressure;Samples;Min_cycle;Max_cycle;Signal;HPM_P1;HPM_P2
2022/03/30 00:01:35;;;;;;;5.95;3.60;;;;;;;-1.61;58.76;97948.28;4916167;29;20087;-64
2022/03/30 00:04:02;;;;;;;8.63;3.60;;;;;;;-1.66;58.53;97953.78;4915398;29;20060;-63
2022/03/30 00:06:29;;;;;;;5.57;3.78;;;;;;;-1.61;58.83;97944.72;4915955;29;20573;-64
2022/03/30 00:08:56;;;;;;;7.20;4.28;;;;;;;-1.62;58.78;97962.19;4915733;29;20419;-63
2022/03/30 00:11:23;;;;;;;6.88;4.03;;;;;;;-1.59;58.80;97956.97;4916148;29;20639;-62
2022/03/30 00:13:50;;;;;;;13.13;4.28;;;;;;;-1.52;58.59;97964.78;4915771;29;20100;-62
2022/03/30 00:16:17;;;;;;;10.38;4.15;;;;;;;-1.48;58.53;97963.88;4899510;29;20151;-63
2022/03/30 00:18:45;;;;;;;8.07;3.70;;;;;;;-1.52;58.93;97962.03;4916170;29;20059;-64
2022/03/30 00:21:12;;;;;;;6.80;3.75;;;;;;;-1.56;58.95;97963.75;4915576;29;20479;-63
2022/03/30 00:23:39;;;;;;;7.65;4.15;;;;;;;-1.52;59.34;97972.94;4915484;29;20056;-64
2022/03/30 00:26:06;;;;;;;7.13;3.80;;;;;;;-1.53;59.34;97972.16;4915482;29;20055;-64
2022/03/30 00:28:33;;;;;;;9.10;4.00;;;;;;;-1.57;59.04;97964.88;4915986;29;20059;-64
2022/03/30 00:31:00;;;;;;;8.93;4.45;;;;;;;-1.65;59.59;97970.94;4915331;29;20062;-64
2022/03/30 00:33:27;;;;;;;7.38;3.72;;;;;;;-1.69;59.39;97967.19;4916132;29;20508;-64
2022/03/30 00:35:54;;;;;;;6.93;3.60;;;;;;;-1.75;59.83;97973.81;4920358;23;20420;-65
2022/03/30 00:38:21;;;;;;;8.68;3.25;;;;;;;-1.70;59.75;97973.75;4884904;29;20061;-66
2022/03/30 00:40:48;;;;;;;5.05;2.88;;;;;;;-1.66;59.39;97978.31;4896282;29;20077;-65
2022/03/30 00:43:16;;;;;;;7.50;3.55;;;;;;;-1.64;59.57;97983.47;4893716;29;20044;-66
2022/03/30 00:45:43;;;;;;;5.10;3.03;;;;;;;-1.68;59.54;97979.72;4896743;29;20456;-66
2022/03/30 00:48:10;;;;;;;6.20;3.30;;;;;;;-1.76;59.70;97985.81;4897225;29;20072;-66
2022/03/30 00:50:37;;;;;;;5.53;3.13;;;;;;;-1.75;59.38;97990.16;4881464;29;20067;-66
2022/03/30 00:53:04;;;;;;;7.40;3.72;;;;;;;-1.72;59.56;97984.13;4879763;29;20049;-66
2022/03/30 00:55:34;;;;;;;7.95;3.88;;;;;;;-1.69;59.56;97991.72;4895260;29;20104;-66
2022/03/30 00:58:01;;;;;;;8.07;3.67;;;;;;;-1.75;59.98;97987.44;4895581;29;20087;-66
2022/03/30 01:00:29;;;;;;;6.03;3.42;;;;;;;-1.80;59.74;97992.94;4896933;29;20067;-65
2022/03/30 01:02:56;;;;;;;6.93;3.30;;;;;;;-1.86;59.43;97993.00;4896362;29;20060;-67
2022/03/30 01:05:23;;;;;;;6.47;3.03;;;;;;;-1.88;59.81;97997.94;4881604;29;20520;-66
2022/03/30 01:07:50;;;;;;;6.53;3.85;;;;;;;-1.90;59.78;97994.69;4896201;29;20057;-66
2022/03/30 01:10:18;;;;;;;5.75;3.33;;;;;;;-1.84;59.86;97997.38;4896692;29;20172;-65
2022/03/30 01:12:47;;;;;;;7.85;4.30;;;;;;;-1.90;59.51;97997.41;4896296;29;20160;-66
2022/03/30 01:15:14;;;;;;;7.82;3.75;;;;;;;-1.88;59.49;98002.56;4896362;29;20056;-66
2022/03/30 01:17:41;;;;;;;5.20;3.20;;;;;;;-1.86;59.50;98005.84;4896006;29;20168;-65
2022/03/30 01:20:13;;;;;;;5.22;3.22;;;;;;;-1.84;59.85;98011.00;4897489;29;20075;-65
2022/03/30 01:22:40;;;;;;;6.13;3.63;;;;;;;-1.83;59.59;98010.69;4896504;29;20088;-65
2022/03/30 01:25:08;;;;;;;6.00;3.72;;;;;;;-1.81;59.18;98013.13;4896401;29;20057;-65
2022/03/30 01:27:36;;;;;;;5.95;3.45;;;;;;;-1.91;59.62;98008.59;4896121;29;20060;-65
2022/03/30 01:33:04;;;;;;;6.65;3.88;;;;;;;-2.02;59.41;98018.81;4895648;29;20064;-65
2022/03/30 01:35:31;;;;;;;8.43;3.05;;;;;;;-2.07;59.83;98016.13;4899755;29;20095;-62
2022/03/30 01:37:59;;;;;;;6.18;3.25;;;;;;;-2.11;59.98;98020.53;4899971;29;20087;-63
2022/03/30 01:40:26;;;;;;;6.93;3.42;;;;;;;-2.09;59.61;98026.53;4883654;29;20060;-63
2022/03/30 01:42:53;;;;;;;6.63;3.13;;;;;;;-2.05;60.09;98022.09;4899620;29;20056;-64
2022/03/30 01:45:21;;;;;;;4.97;2.83;;;;;;;-2.05;59.76;98027.56;4884249;29;20052;-63
2022/03/30 01:47:50;;;;;;;5.35;2.92;;;;;;;-2.14;60.18;98033.91;4899529;29;20095;-62
2022/03/30 01:50:17;;;;;;;7.20;3.25;;;;;;;-2.18;60.18;98030.97;4883468;29;20073;-65
2022/03/30 01:52:45;;;;;;;5.57;3.15;;;;;;;-2.14;60.36;98036.63;4899721;29;20052;-63
2022/03/30 01:55:14;;;;;;;6.22;2.53;;;;;;;-2.13;59.85;98041.78;4899882;29;20500;-64
2022/03/30 01:57:41;;;;;;;5.03;3.15;;;;;;;-2.09;60.24;98037.41;4900013;29;20059;-64
2022/03/30 02:00:10;;;;;;;5.95;2.72;;;;;;;-2.08;60.07;98035.47;4900109;29;20052;-63
2022/03/30 02:02:38;;;;;;;4.25;2.85;;;;;;;-2.22;60.36;98040.78;4899681;29;20053;-64
2022/03/30 02:05:08;;;;;;;3.25;2.45;;;;;;;-2.32;61.13;98043.63;4899832;29;20060;-63
2022/03/30 02:07:39;;;;;;;4.80;2.80;;;;;;;-2.29;60.48;98045.78;4899316;29;20057;-63
2022/03/30 02:10:08;;;;;;;5.68;3.00;;;;;;;-2.26;60.83;98049.81;4883359;29;20053;-63
2022/03/30 02:12:36;;;;;;;5.45;2.88;;;;;;;-2.29;60.76;98048.50;4899332;29;20087;-64
2022/03/30 02:15:05;;;;;;;8.30;2.58;;;;;;;-2.32;61.03;98054.50;4896180;29;20069;-63
2022/03/30 02:17:33;;;;;;;4.47;2.70;;;;;;;-2.34;60.87;98053.19;4882337;29;20112;-63
2022/03/30 02:20:00;;;;;;;7.72;2.80;;;;;;;-2.38;60.92;98052.13;4899212;29;20057;-63
2022/03/30 02:22:28;;;;;;;5.40;2.67;;;;;;;-2.40;61.05;98059.78;4898933;29;20048;-63
2022/03/30 02:24:56;;;;;;;5.00;2.92;;;;;;;-2.43;61.63;98063.06;4899584;29;20049;-63
2022/03/30 02:27:23;;;;;;;6.93;2.85;;;;;;;-2.50;61.94;98066.09;4899036;29;20246;-63
2022/03/30 02:29:53;;;;;;;4.95;2.90;;;;;;;-2.53;61.99;98069.41;4898854;29;20059;-63
2022/03/30 02:32:22;;;;;;;5.35;2.45;;;;;;;-2.56;62.10;98077.31;4898968;29;20112;-62
2022/03/30 02:34:50;;;;;;;3.58;2.25;;;;;;;-2.67;62.23;98078.47;4898884;29;20059;-62
2022/03/30 02:37:17;;;;;;;5.80;3.10;;;;;;;-2.68;62.02;98080.41;4898605;29;20063;-62
2022/03/30 02:39:45;;;;;;;5.43;2.72;;;;;;;-2.68;61.75;98091.28;4898679;29;20092;-62
2022/03/30 02:42:13;;;;;;;5.10;2.80;;;;;;;-2.65;61.75;98090.72;4898595;29;20397;-62
2022/03/30 02:44:40;;;;;;;5.05;2.72;;;;;;;-2.66;61.39;98088.28;4898050;29;20419;-62
2022/03/30 02:47:07;;;;;;;4.80;2.83;;;;;;;-2.61;61.64;98091.78;4898037;29;20112;-62
2022/03/30 02:49:35;;;;;;;4.15;2.60;;;;;;;-2.59;61.52;98100.47;4898507;29;20057;-62
2022/03/30 02:52:04;;;;;;;5.93;2.88;;;;;;;-2.56;61.18;98105.34;4883474;29;20056;-61
2022/03/30 02:54:31;;;;;;;5.38;2.85;;;;;;;-2.58;61.73;98104.81;4897894;29;20056;-62
2022/03/30 02:56:59;;;;;;;4.90;2.53;;;;;;;-2.59;60.87;98115.97;4898466;29;20139;-62
2022/03/30 02:59:26;;;;;;;7.47;3.05;;;;;;;-2.67;61.60;98114.69;4897641;29;20055;-62
2022/03/30 03:01:54;;;;;;;4.10;2.60;;;;;;;-2.72;61.09;98125.59;4898027;29;20052;-62
2022/03/30 03:04:22;;;;;;;4.30;2.22;;;;;;;-2.74;60.94;98113.38;4898012;29;20053;-62
2022/03/30 03:06:49;;;;;;;5.85;2.50;;;;;;;-2.69;60.67;98116.84;4898145;29;20061;-63
2022/03/30 03:09:17;;;;;;;4.25;2.38;;;;;;;-2.59;60.57;98121.41;4897916;29;20124;-62
2022/03/30 03:11:44;;;;;;;4.88;3.13;;;;;;;-2.67;60.53;98125.56;4898289;29;20586;-62
2022/03/30 03:14:11;;;;;;;5.45;2.50;;;;;;;-2.70;60.50;98119.84;4897881;29;20508;-62
2022/03/30 03:16:38;;;;;;;4.20;2.60;;;;;;;-2.79;60.60;98125.09;4897796;29;20131;-62
2022/03/30 03:19:05;;;;;;;7.05;2.90;;;;;;;-2.77;60.36;98136.50;4882490;29;20531;-62
2022/03/30 03:21:32;;;;;;;7.38;3.38;;;;;;;-2.69;60.74;98125.03;4897626;29;20055;-62
2022/03/30 03:23:59;;;;;;;4.97;2.92;;;;;;;-2.67;60.21;98135.63;4882102;29;20086;-62
2022/03/30 03:26:26;;;;;;;4.65;2.67;;;;;;;-2.77;60.42;98130.25;4897148;29;20056;-62
2022/03/30 03:28:53;;;;;;;5.10;2.90;;;;;;;-2.82;61.03;98139.25;4897570;29;20144;-62
2022/03/30 03:31:20;;;;;;;16.40;2.85;;;;;;;-2.82;60.13;98138.44;4896838;29;20056;-62
2022/03/30 03:33:47;;;;;;;6.85;2.78;;;;;;;-2.81;60.03;98140.88;4897832;29;20060;-61
2022/03/30 03:36:14;;;;;;;6.05;2.88;;;;;;;-2.78;60.44;98145.75;4897228;29;20542;-64
2022/03/30 03:38:41;;;;;;;6.25;3.08;;;;;;;-2.78;60.18;98156.63;4897986;29;20408;-66
2022/03/30 03:41:08;;;;;;;5.13;2.90;;;;;;;-2.75;59.48;98161.50;4897311;29;20143;-65
2022/03/30 03:43:36;;;;;;;6.97;4.00;;;;;;;-2.69;59.37;98152.22;4897763;29;20484;-65
2022/03/30 03:46:03;;;;;;;7.45;3.55;;;;;;;-2.63;59.88;98159.28;4897301;29;20056;-65
2022/03/30 03:48:30;;;;;;;5.43;2.75;;;;;;;-2.69;59.74;98165.03;4896213;29;20523;-65
2022/03/30 03:50:58;;;;;;;4.15;2.75;;;;;;;-2.75;59.74;98175.13;4897259;29;20065;-66
2022/03/30 03:53:25;;;;;;;7.10;3.05;;;;;;;-2.77;58.99;98171.88;4897100;29;20055;-66
2022/03/30 03:55:52;;;;;;;6.65;3.35;;;;;;;-2.76;59.45;98181.66;4890438;29;20063;-66
2022/03/30 03:58:19;;;;;;;5.72;3.15;;;;;;;-2.60;58.56;98168.78;4895881;29;20060;-66
2022/03/30 04:00:46;;;;;;;6.35;2.92;;;;;;;-2.52;58.28;98177.16;4899454;29;20044;-65
2022/03/30 04:03:13;;;;;;;6.22;2.80;;;;;;;-2.45;58.13;98191.31;4896616;29;20082;-66
2022/03/30 04:05:41;;;;;;;13.73;3.38;;;;;;;-2.28;58.25;98194.44;4897136;29;20053;-65
2022/03/30 04:08:08;;;;;;;7.07;3.95;;;;;;;-2.09;57.98;98192.69;4903330;29;20455;-65
2022/03/30 04:10:35;;;;;;;5.57;3.25;;;;;;;-1.95;57.74;98188.19;4901684;29;20127;-67
2022/03/30 04:13:06;;;;;;;5.95;2.97;;;;;;;-1.90;57.98;98190.88;4896381;29;20100;-66
2022/03/30 04:15:34;;;;;;;4.55;2.88;;;;;;;-1.80;57.76;98194.63;4897148;29;20067;-66
2022/03/30 04:18:03;;;;;;;4.65;2.55;;;;;;;-1.87;57.06;98206.66;4896372;29;20060;-66
2022/03/30 04:20:31;;;;;;;6.00;2.53;;;;;;;-2.02;57.14;98209.50;4897335;29;20459;-66
2022/03/30 04:22:59;;;;;;;5.20;2.50;;;;;;;-2.07;57.85;98206.81;4896667;29;20460;-66
2022/03/30 04:25:27;;;;;;;6.18;3.58;;;;;;;-2.06;57.47;98204.91;4893344;29;20071;-66
2022/03/30 04:27:54;;;;;;;5.35;3.00;;;;;;;-2.26;58.14;98214.03;4896750;29;20143;-66
2022/03/30 04:30:23;;;;;;;5.03;2.88;;;;;;;-2.24;58.07;98211.03;4896966;29;20049;-66
2022/03/30 04:32:51;;;;;;;5.53;3.22;;;;;;;-2.19;58.54;98206.34;4896718;29;20139;-66
2022/03/30 04:35:24;;;;;;;4.97;2.60;;;;;;;-2.15;58.22;98223.78;4897080;29;20460;-66
2022/03/30 04:37:56;;;;;;;7.82;2.40;;;;;;;-2.15;57.74;98225.69;4896304;29;20088;-66
2022/03/30 04:40:25;;;;;;;3.65;2.38;;;;;;;-2.17;57.69;98223.22;4896713;29;20135;-63
2022/03/30 04:42:52;;;;;;;4.75;3.00;;;;;;;-2.06;57.33;98221.25;4896775;29;20151;-64
2022/03/30 04:45:20;;;;;;;4.75;2.65;;;;;;;-2.09;57.64;98228.09;4896580;29;20052;-64
2022/03/30 04:47:48;;;;;;;8.18;2.72;;;;;;;-2.12;57.41;98230.56;4896926;29;21027;-64
2022/03/30 04:50:16;;;;;;;3.63;2.40;;;;;;;-1.96;56.93;98230.16;4896390;29;20113;-64
2022/03/30 04:52:43;;;;;;;4.95;2.45;;;;;;;-1.72;56.26;98232.16;4896841;29;20509;-63
2022/03/30 04:55:11;;;;;;;6.32;2.80;;;;;;;-1.77;56.32;98232.19;4882359;29;20109;-64
2022/03/30 04:57:40;;;;;;;5.75;3.20;;;;;;;-1.71;56.55;98236.50;4896705;29;20523;-64
2022/03/30 05:00:10;;;;;;;6.32;3.00;;;;;;;-1.67;56.34;98230.19;4896100;29;20052;-64
2022/03/30 05:02:38;;;;;;;10.88;2.20;;;;;;;-1.74;56.68;98237.06;4896730;29;20052;-62
2022/03/30 05:05:08;;;;;;;4.18;3.05;;;;;;;-1.68;56.83;98242.22;4897158;29;20063;-62
2022/03/30 05:07:36;;;;;;;3.95;2.63;;;;;;;-1.67;56.76;98245.72;4896572;29;20439;-62
2022/03/30 05:10:05;;;;;;;6.03;2.97;;;;;;;-1.63;56.44;98241.34;4898939;29;20057;-63
2022/03/30 05:12:32;;;;;;;4.07;2.70;;;;;;;-1.66;56.23;98250.09;4900116;29;20060;-61
2022/03/30 05:15:05;;;;;;;4.03;2.47;;;;;;;-1.73;56.60;98255.88;4899805;29;20123;-62
2022/03/30 05:17:32;;;;;;;7.57;2.85;;;;;;;-1.62;56.02;98262.06;4900234;29;20453;-62
2022/03/30 05:19:59;;;;;;;4.35;2.60;;;;;;;-1.46;55.51;98260.81;4900176;29;20059;-62
2022/03/30 05:22:26;;;;;;;5.82;2.53;;;;;;;-1.50;55.67;98270.66;4884542;29;20052;-63
2022/03/30 05:24:53;;;;;;;5.72;2.45;;;;;;;-1.57;56.16;98275.66;4900055;29;20092;-64
2022/03/30 05:27:20;;;;;;;4.57;2.60;;;;;;;-1.34;55.71;98277.59;4899872;29;20479;-63
2022/03/30 05:29:47;;;;;;;5.70;2.47;;;;;;;-0.11;53.03;98275.63;4899665;29;20059;-63
2022/03/30 05:32:14;;;;;;;4.20;2.53;;;;;;;1.16;50.07;98274.03;4899755;29;20447;-63
2022/03/30 05:34:41;;;;;;;7.10;2.40;;;;;;;2.04;48.92;98281.03;4881635;29;20053;-63
2022/03/30 05:37:09;;;;;;;7.80;2.58;;;;;;;2.69;47.60;98290.47;4899407;29;20060;-63
2022/03/30 05:39:39;;;;;;;5.10;2.33;;;;;;;1.86;48.87;98291.81;4900096;29;20080;-64
2022/03/30 05:42:11;;;;;;;5.15;2.55;;;;;;;1.35;48.67;98290.41;4899705;29;20057;-63
2022/03/30 05:44:39;;;;;;;6.72;2.30;;;;;;;1.33;48.55;98287.97;4899495;29;20390;-64
2022/03/30 05:47:07;;;;;;;8.05;2.95;;;;;;;1.59;48.36;98291.00;4899096;29;20431;-63
2022/03/30 05:49:35;;;;;;;6.18;2.88;;;;;;;2.07;47.38;98288.63;4899688;29;20451;-63
2022/03/30 05:52:03;;;;;;;4.20;2.15;;;;;;;2.37;46.17;98293.44;4898884;29;20052;-64
2022/03/30 05:54:33;;;;;;;3.95;2.20;;;;;;;3.08;45.08;98296.84;4899349;29;20079;-63
2022/03/30 05:57:00;;;;;;;4.80;2.20;;;;;;;2.56;45.08;98297.63;4899194;29;20053;-63
2022/03/30 05:59:29;;;;;;;3.55;1.85;;;;;;;2.36;45.70;98294.53;4899708;29;20131;-64
2022/03/30 06:01:57;;;;;;;6.15;1.80;;;;;;;2.22;44.90;98304.75;4899058;29;20056;-63
2022/03/30 06:04:25;;;;;;;3.47;1.98;;;;;;;2.41;45.14;98291.69;4899189;29;20119;-64
2022/03/30 06:06:52;;;;;;;4.53;2.15;;;;;;;3.84;42.98;98295.56;4898921;29;20472;-64
2022/03/30 06:09:20;;;;;;;3.00;1.67;;;;;;;2.97;44.39;98305.66;4899023;29;20059;-65
2022/03/30 06:12:06;;;;;;;7.85;2.47;;;;;;;3.24;43.63;98300.84;4899180;29;20060;-63
2022/03/30 06:14:33;;;;;;;3.30;1.60;;;;;;;3.73;42.21;98310.72;4899220;29;20064;-64
2022/03/30 06:17:03;;;;;;;4.22;1.83;;;;;;;6.42;37.99;98309.38;4898768;29;20048;-64
2022/03/30 06:19:32;;;;;;;3.13;1.70;;;;;;;6.95;36.93;98309.41;4899173;29;20049;-65
2022/03/30 06:22:05;;;;;;;3.38;1.80;;;;;;;7.18;36.52;98307.91;4897306;29;20519;-64
2022/03/30 06:24:36;;;;;;;3.53;1.90;;;;;;;8.37;33.53;98306.44;4883221;29;20052;-63
2022/03/30 06:27:04;;;;;;;;;;;;;;;7.81;34.24;98310.13;4898764;29;20053;-65
2022/03/30 06:29:36;;;;;;;3.55;2.08;;;;;;;7.86;34.27;98315.44;4899755;29;19928;-64
2022/03/30 06:32:05;;;;;;;4.20;1.73;;;;;;;7.88;33.76;98315.91;4897865;29;20140;-65
2022/03/30 06:34:32;;;;;;;4.72;2.20;;;;;;;8.55;32.65;98312.53;4898665;29;20135;-65
2022/03/30 06:36:59;;;;;;;2.25;1.60;;;;;;;10.61;30.39;98313.81;4898089;29;20060;-63
2022/03/30 06:39:26;;;;;;;4.45;2.25;;;;;;;12.37;28.30;98309.72;4879754;29;20124;-64
2022/03/30 06:41:53;;;;;;;3.33;2.03;;;;;;;14.37;25.34;98317.84;4896569;29;20056;-64
2022/03/30 06:44:20;;;;;;;2.60;1.60;;;;;;;15.92;23.55;98317.47;4898842;29;20057;-64
2022/03/30 06:46:48;;;;;;;7.65;1.92;;;;;;;15.71;24.55;98323.03;4897919;29;20065;-64
2022/03/30 06:49:15;;;;;;;3.95;1.40;;;;;;;13.79;25.12;98333.59;4898352;29;20068;-64
2022/03/30 06:51:43;;;;;;;3.85;1.70;;;;;;;11.81;26.50;98329.06;4898310;29;20412;-64
2022/03/30 06:54:10;;;;;;;2.63;1.60;;;;;;;10.27;28.17;98340.41;4898791;29;20057;-63
2022/03/30 06:56:37;;;;;;;4.45;1.60;;;;;;;8.43;29.56;98341.09;4897794;29;20076;-64
2022/03/30 06:59:04;;;;;;;4.57;1.60;;;;;;;9.74;27.75;98345.75;4879520;29;20143;-64
2022/03/30 07:01:34;;;;;;;3.13;1.63;;;;;;;10.14;27.39;98346.41;4898427;29;20052;-65
2022/03/30 07:04:02;;;;;;;2.97;1.75;;;;;;;8.66;28.72;98353.31;4898371;29;20457;-64
2022/03/30 07:06:29;;;;;;;3.58;2.03;;;;;;;7.73;29.73;98357.28;4898167;29;20087;-64
2022/03/30 07:11:42;;;;;;;2.92;1.40;;;;;;;5.69;32.08;98369.44;4897878;29;20135;-63
2022/03/30 07:14:08;;;;;;;46.05;15.35;;;;;;;5.76;31.59;98373.63;4895109;29;20530;-65
2022/03/30 07:16:36;;;;;;;4.13;2.15;;;;;;;7.00;29.48;98373.63;4897715;29;20063;-64
2022/03/30 07:19:03;;;;;;;2.95;1.60;;;;;;;6.03;30.33;98376.81;4897630;29;20139;-65
2022/03/30 07:21:30;;;;;;;2.28;1.33;;;;;;;6.37;30.18;98370.31;4898651;29;20061;-64
2022/03/30 07:23:57;;;;;;;3.65;1.42;;;;;;;7.55;29.16;98373.25;4897516;29;20171;-65
2022/03/30 07:26:24;;;;;;;2.33;1.30;;;;;;;7.70;28.69;98375.41;4898062;29;20055;-64
2022/03/30 07:28:51;;;;;;;6.35;1.80;;;;;;;9.32;27.56;98393.34;4897679;29;20060;-64
2022/03/30 07:31:18;;;;;;;1.88;1.08;;;;;;;9.27;26.22;98385.25;4890818;29;20467;-63
2022/03/30 07:33:45;;;;;;;1.50;0.90;;;;;;;7.37;28.63;98383.69;4895890;29;20056;-64
2022/03/30 07:36:12;;;;;;;2.08;1.27;;;;;;;7.25;29.19;98389.16;4897482;29;20520;-64
2022/03/30 07:38:39;;;;;;;1.45;1.08;;;;;;;8.55;27.13;98390.97;4882111;29;20120;-64
2022/03/30 07:41:06;;;;;;;2.50;1.73;;;;;;;9.77;26.17;98393.03;4897650;29;20412;-64
2022/03/30 07:43:33;;;;;;;4.88;1.70;;;;;;;12.13;24.15;98386.19;4897072;29;20056;-63
2022/03/30 07:46:00;;;;;;;3.70;1.58;;;;;;;14.31;22.01;98392.13;4897663;29;20052;-65
2022/03/30 07:48:27;;;;;;;4.93;1.45;;;;;;;15.08;21.09;98387.16;4897129;29;20091;-64
2022/03/30 07:50:54;;;;;;;5.63;1.50;;;;;;;16.19;19.61;98394.47;4897579;29;20116;-64
2022/03/30 07:53:27;;;;;;;7.03;1.90;;;;;;;15.41;19.88;98398.19;4896994;29;20456;-63
2022/03/30 07:55:55;;;;;;;6.05;1.50;;;;;;;14.06;21.11;98396.59;4897559;29;20404;-64
2022/03/30 07:58:22;;;;;;;2.45;1.55;;;;;;;12.17;21.86;98403.78;4897118;29;20139;-64
2022/03/30 08:00:49;;;;;;;2.33;1.40;;;;;;;12.59;22.09;98401.75;4897306;29;20049;-63
2022/03/30 08:03:16;;;;;;;3.05;1.30;;;;;;;11.08;23.07;98400.75;4897017;29;20084;-63
2022/03/30 08:05:44;;;;;;;4.18;1.10;;;;;;;9.27;24.83;98406.69;4897086;29;20054;-64
2022/03/30 08:08:11;;;;;;;2.47;1.77;;;;;;;7.72;27.06;98422.09;4897514;29;20165;-63
2022/03/30 08:10:38;;;;;;;2.38;1.33;;;;;;;6.73;27.62;98425.84;4896692;29;20056;-64
2022/03/30 08:13:06;;;;;;;3.25;1.48;;;;;;;9.26;25.04;98414.19;4896960;29;20048;-64
2022/03/30 08:15:36;;;;;;;1.90;1.30;;;;;;;11.29;22.92;98414.31;4897314;29;20056;-64
2022/03/30 08:18:05;;;;;;;3.60;1.40;;;;;;;14.05;20.48;98412.59;4897236;29;20053;-63
2022/03/30 08:23:18;;;;;;;2.28;1.30;;;;;;;8.73;25.17;98413.69;4896565;29;20052;-64
2022/03/30 08:25:45;;;;;;;3.67;1.33;;;;;;;7.17;26.76;98419.66;4897207;29;20052;-64
2022/03/30 08:28:12;;;;;;;5.75;1.70;;;;;;;6.55;26.82;98418.78;4896679;29;20083;-64
2022/03/30 08:30:39;;;;;;;2.13;1.00;;;;;;;5.66;28.51;98421.72;4894527;29;20048;-64
2022/03/30 08:33:07;;;;;;;3.35;1.48;;;;;;;4.85;28.89;98425.47;4874666;29;20066;-63
2022/03/30 08:35:34;;;;;;;2.92;1.83;;;;;;;7.69;26.85;98420.81;4896561;29;20053;-64
2022/03/30 08:38:03;;;;;;;2.13;1.27;;;;;;;12.81;21.59;98412.09;4896421;29;20061;-63
2022/03/30 08:40:30;;;;;;;2.30;1.58;;;;;;;12.56;21.38;98416.44;4896258;29;20075;-64
2022/03/30 08:42:57;;;;;;;2.60;1.70;;;;;;;17.02;17.94;98406.19;4896568;29;20060;-64
2022/03/30 08:45:25;;;;;;;2.17;1.50;;;;;;;20.97;15.49;98403.31;4899558;29;20528;-63
2022/03/30 08:47:52;;;;;;;7.97;1.80;;;;;;;24.13;13.71;98403.81;4900715;29;20409;-68
2022/03/30 08:50:20;;;;;;;1.98;1.40;;;;;;;25.08;12.22;98395.97;4900635;29;20131;-64
2022/03/30 08:52:49;;;;;;;2.83;1.27;;;;;;;25.49;12.18;98401.47;4900308;29;20080;-63
2022/03/30 08:55:17;;;;;;;1.85;1.20;;;;;;;26.22;11.51;98406.56;4900587;29;20151;-63
2022/03/30 08:57:44;;;;;;;2.10;1.35;;;;;;;26.43;11.41;98410.66;4900307;29;20057;-64
2022/03/30 09:00:20;;;;;;;2.58;1.27;;;;;;;26.58;10.91;98406.81;4900163;29;20139;-64
2022/03/30 09:03:00;;;;;;;2.75;1.50;;;;;;;27.62;10.03;98405.78;4897559;29;20529;-64
2022/03/30 09:05:30;;;;;;;3.13;1.30;;;;;;;28.26;9.60;98403.75;4899862;29;20071;-65
2022/03/30 09:08:10;;;;;;;1.73;1.33;;;;;;;29.66;9.28;98408.34;4900341;29;20415;-64
2022/03/30 09:10:38;;;;;;;2.63;1.48;;;;;;;28.69;9.29;98394.78;4899907;29;20342;-64
2022/03/30 09:13:07;;;;;;;2.03;1.40;;;;;;;27.16;10.13;98398.38;4900272;29;20082;-65
2022/03/30 09:15:36;;;;;;;6.22;1.70;;;;;;;25.13;11.29;98392.53;4899813;29;20140;-64
2022/03/30 09:18:06;;;;;;;3.22;1.58;;;;;;;27.05;10.56;98405.78;4900010;29;20076;-64
2022/03/30 09:20:38;;;;;;;2.75;1.17;;;;;;;27.06;9.64;98410.22;4899871;29;20139;-65
2022/03/30 09:23:08;;;;;;;2.05;1.20;;;;;;;25.41;10.25;98397.31;4900236;29;20135;-64
2022/03/30 09:25:45;;;;;;;1.90;1.27;;;;;;;25.81;10.39;98386.13;4899647;29;20480;-63
2022/03/30 09:28:13;;;;;;;2.78;1.25;;;;;;;21.32;12.46;98410.41;4899933;29;20099;-64
2022/03/30 09:30:41;;;;;;;3.05;1.38;;;;;;;18.46;13.64;98399.31;4899064;29;20059;-64
2022/03/30 09:33:11;;;;;;;3.95;1.50;;;;;;;15.29;15.61;98398.50;4900026;29;20053;-67
2022/03/30 09:35:41;;;;;;;2.10;1.25;;;;;;;12.71;17.98;98406.34;4900183;29;20523;-65
2022/03/30 09:38:22;;;;;;;4.25;1.45;;;;;;;10.88;18.74;98411.03;4899374;29;20072;-65
2022/03/30 09:40:53;;;;;;;4.15;1.10;;;;;;;9.42;20.73;98422.59;4899475;29;20136;-65
2022/03/30 09:43:24;;;;;;;2.22;1.25;;;;;;;8.29;21.96;98415.44;4899880;29;20048;-66
2022/03/30 09:46:06;;;;;;;3.38;1.65;;;;;;;7.81;22.46;98422.81;4899181;29;20108;-64
2022/03/30 09:48:36;;;;;;;1.90;1.27;;;;;;;7.05;23.30;98423.16;4899482;29;20076;-64
2022/03/30 09:51:05;;;;;;;4.43;1.77;;;;;;;6.48;24.18;98421.28;4899111;29;20044;-64
2022/03/30 09:53:32;;;;;;;5.00;1.95;;;;;;;6.21;24.93;98427.22;4899587;29;20540;-65
2022/03/30 09:56:08;;;;;;;2.83;1.52;;;;;;;5.98;25.25;98434.16;4899408;29;20056;-64
2022/03/30 09:58:37;;;;;;;2.53;1.60;;;;;;;5.63;26.00;98434.19;4899539;29;20064;-63
2022/03/30 10:01:08;;;;;;;7.63;2.38;;;;;;;5.24;26.33;98437.16;4898700;29;20056;-64
2022/03/30 10:03:59;;;;;;;4.22;1.40;;;;;;;4.85;26.36;98429.03;4899396;29;20080;-65
2022/03/30 10:06:34;;;;;;;1.73;1.10;;;;;;;4.45;26.97;98441.28;4896788;29;20135;-65
2022/03/30 10:09:07;;;;;;;3.72;1.55;;;;;;;3.96;28.33;98427.81;4897923;29;20128;-65
2022/03/30 10:11:34;;;;;;;1.92;1.17;;;;;;;3.62;28.99;98433.94;4897824;29;20041;-65
2022/03/30 10:14:05;;;;;;;3.60;1.40;;;;;;;3.53;28.95;98430.31;4896027;29;20056;-65
2022/03/30 10:16:42;;;;;;;3.17;1.25;;;;;;;3.36;29.74;98451.41;4898944;29;20055;-65
2022/03/30 10:19:09;;;;;;;1.90;1.10;;;;;;;2.98;30.19;98447.38;4898756;29;20061;-65
2022/03/30 10:21:54;;;;;;;2.72;1.42;;;;;;;2.85;30.16;98456.47;4883526;29;20571;-65
2022/03/30 10:25:05;;;;;;;2.38;1.25;;;;;;;2.67;31.02;98440.94;4898743;29;20397;-65
2022/03/30 10:27:44;;;;;;;12.13;1.30;;;;;;;2.71;30.51;98437.28;4898398;29;20476;-65
2022/03/30 10:30:12;;;;;;;2.83;1.40;;;;;;;3.10;30.51;98431.16;4899273;29;20500;-65
2022/03/30 10:32:40;;;;;;;3.80;1.33;;;;;;;3.48;29.95;98437.91;4898463;29;20072;-65
2022/03/30 10:35:12;;;;;;;5.25;1.33;;;;;;;3.28;30.94;98436.47;4899330;29;20556;-65
2022/03/30 10:37:44;;;;;;;3.15;1.38;;;;;;;3.15;30.83;98439.28;4898616;29;20121;-65
2022/03/30 10:40:19;;;;;;;2.67;1.52;;;;;;;2.94;31.14;98443.63;4897850;29;20079;-65
2022/03/30 10:42:46;;;;;;;2.38;1.13;;;;;;;2.87;31.09;98435.81;4897542;29;20132;-68
2022/03/30 10:45:28;;;;;;;2.40;1.20;;;;;;;2.78;31.13;98434.13;4898614;29;20044;-67
2022/03/30 10:48:27;;;;;;;7.22;1.52;;;;;;;2.86;30.68;98436.09;4897546;29;20416;-67
2022/03/30 10:50:59;;;;;;;5.15;1.45;;;;;;;2.85;31.52;98434.50;4884034;29;20065;-66
2022/03/30 10:53:33;;;;;;;6.45;1.30;;;;;;;2.93;31.72;98437.31;4898023;29;20416;-68
2022/03/30 10:56:07;;;;;;;3.20;1.38;;;;;;;3.02;31.24;98440.16;4896194;29;20049;-68
2022/03/30 10:58:36;;;;;;;1.83;0.90;;;;;;;2.96;30.95;98435.91;4898214;29;20045;-68
2022/03/30 11:01:14;;;;;;;3.03;0.90;;;;;;;2.89;30.71;98440.97;4897633;29;20076;-68
2022/03/30 11:04:02;;;;;;;2.20;1.15;;;;;;;2.72;30.78;98430.66;4898284;29;20059;-68
2022/03/30 11:06:40;;;;;;;5.95;1.63;;;;;;;2.74;30.63;98438.59;4896290;29;20102;-67
2022/03/30 11:09:23;;;;;;;8.43;1.45;;;;;;;2.89;30.67;98441.81;4896862;29;21213;-68
2022/03/30 11:12:02;;;;;;;2.97;1.60;;;;;;;2.99;30.38;98440.78;4894841;29;20063;-69
2022/03/30 11:14:33;;;;;;;2.33;1.10;;;;;;;2.70;30.97;98432.91;4896843;29;20056;-67
2022/03/30 11:17:13;;;;;;;2.65;1.30;;;;;;;2.41;31.35;98437.94;4897428;29;20077;-68
2022/03/30 11:19:56;;;;;;;3.83;1.75;;;;;;;2.36;31.70;98442.69;4897340;29;20084;-69
2022/03/30 11:22:28;;;;;;;10.40;2.20;;;;;;;2.50;31.36;98441.59;4897516;29;20051;-67
2022/03/30 11:25:11;;;;;;;3.25;1.52;;;;;;;2.46;31.13;98440.56;4896773;29;20108;-65
2022/03/30 11:27:38;;;;;;;4.15;1.50;;;;;;;2.40;31.59;98447.28;4893958;29;20144;-66
2022/03/30 11:30:13;;;;;;;2.63;1.50;;;;;;;2.35;31.18;98441.09;4897594;29;20056;-66
2022/03/30 11:32:50;;;;;;;3.08;1.50;;;;;;;2.55;30.81;98446.16;4896206;29;20112;-65
2022/03/30 11:35:20;;;;;;;6.60;2.35;;;;;;;2.81;30.90;98447.22;4897303;29;20048;-65
2022/03/30 11:37:55;;;;;;;2.47;1.42;;;;;;;2.86;30.66;98441.59;4896515;29;20484;-66
2022/03/30 11:40:22;;;;;;;2.60;1.17;;;;;;;2.86;30.54;98447.09;4896240;29;20131;-66
2022/03/30 11:42:52;;;;;;;2.13;0.85;;;;;;;2.57;30.00;98446.66;4896341;29;20135;-62
2022/03/30 11:45:39;;;;;;;2.15;1.00;;;;;;;2.28;29.95;98440.69;4896648;29;20112;-63
2022/03/30 11:48:10;;;;;;;8.27;1.45;;;;;;;2.21;30.43;98445.75;4895426;29;20048;-64
2022/03/30 11:50:44;;;;;;;1.60;0.70;;;;;;;2.09;30.56;98437.22;4897254;29;20103;-64
2022/03/30 11:53:22;;;;;;;1.20;0.90;;;;;;;1.95;30.24;98442.72;4897157;29;20057;-65
2022/03/30 11:55:51;;;;;;;1.70;1.02;;;;;;;1.99;29.20;98434.69;4896090;29;20056;-65